Time;durP1;ratioP1;P1;durP2;ratioP2;P2;SDS_P1;SDS_P2;PMS_P1;PMS_P2;Temp;Humidity;BMP_temperature;BMP_pressure;BME280_temperature;BME280_humidity;BME280_pressure;Samples;Min_cycle;Max_cycle;Signal;HPM_P1;HPM_P2
2023/07/25 00:01:02;;;;;;;5.15;1.95;;;19.80;99.90;;;;;;5025788;28;20026;-67
2023/07/25 00:03:28;;;;;;;9.05;2.53;;;19.80;99.90;;;;;;5029580;28;20029;-66
2023/07/25 00:05:53;;;;;;;6.77;3.13;;;19.70;99.90;;;;;;5026368;28;20040;-66
2023/07/25 00:08:19;;;;;;;4.47;2.10;;;19.90;99.90;;;;;;5030271;28;20034;-69
2023/07/25 00:10:44;;;;;;;6.97;2.33;;;19.60;99.90;;;;;;5029657;28;20053;-72
2023/07/25 00:13:10;;;;;;;5.37;2.17;;;19.60;99.90;;;;;;5029418;28;20515;-69
2023/07/25 00:15:36;;;;;;;4.32;1.92;;;19.80;99.90;;;;;;5026134;28;20029;-70
2023/07/25 00:18:02;;;;;;;3.20;1.48;;;19.60;99.90;;;;;;5029505;28;20033;-67
2023/07/25 00:20:28;;;;;;;2.72;1.90;;;19.60;99.90;;;;;;5028780;28;20026;-68
2023/07/25 00:22:54;;;;;;;7.83;2.60;;;19.60;99.90;;;;;;5028006;28;20501;-73
2023/07/25 00:25:19;;;;;;;3.20;1.77;;;19.50;99.90;;;;;;5028275;28;20018;-66
2023/07/25 00:27:45;;;;;;;5.63;2.00;;;19.60;99.90;;;;;;5027555;28;20513;-68
2023/07/25 00:30:11;;;;;;;6.30;2.30;;;19.60;99.90;;;;;;5029183;28;20626;-68
2023/07/25 00:32:36;;;;;;;8.30;2.45;;;19.60;99.90;;;;;;5026581;28;20026;-68
2023/07/25 00:35:02;;;;;;;8.10;1.83;;;19.70;99.90;;;;;;5027742;28;20030;-68
2023/07/25 00:37:31;;;;;;;6.78;2.15;;;19.70;99.90;;;;;;5027475;28;20025;-74
2023/07/25 00:39:57;;;;;;;5.65;1.95;;;19.70;99.90;;;;;;5027463;28;20116;-69
2023/07/25 00:42:23;;;;;;;5.72;1.83;;;19.60;99.90;;;;;;5030369;28;20029;-66
2023/07/25 00:44:49;;;;;;;8.45;2.17;;;19.70;99.90;;;;;;5058817;28;20616;-73
2023/07/25 00:47:17;;;;;;;5.60;2.00;;;19.90;99.90;;;;;;5028038;28;20072;-78
2023/07/25 00:49:45;;;;;;;12.60;2.13;;;20.00;99.90;;;;;;5027338;28;20021;-71
2023/07/25 00:52:10;;;;;;;3.10;1.67;;;19.90;99.90;;;;;;5029526;28;20041;-77
2023/07/25 00:54:44;;;;;;;4.37;2.30;;;20.00;99.90;;;;;;5029045;28;20108;-75
2023/07/25 00:57:10;;;;;;;10.77;2.85;;;20.10;99.90;;;;;;5026754;28;20308;-81
2023/07/25 00:59:35;;;;;;;6.47;2.10;;;20.10;99.90;;;;;;5029741;28;20029;-82
2023/07/25 01:02:02;;;;;;;9.47;1.83;;;20.10;99.90;;;;;;5021065;28;20038;-87
2023/07/25 01:04:27;;;;;;;4.45;2.10;;;20.00;99.90;;;;;;5028812;28;20163;-69
2023/07/25 01:06:53;;;;;;;6.40;1.90;;;19.70;99.90;;;;;;5027587;28;20108;-73
2023/07/25 01:09:42;;;;;;;16.95;2.80;;;19.70;99.90;;;;;;5025506;28;20036;-76
2023/07/25 01:12:09;;;;;;;6.15;1.80;;;19.60;99.90;;;;;;5024007;28;20802;-72
2023/07/25 01:14:36;;;;;;;6.28;2.10;;;19.50;99.90;;;;;;5025837;28;20026;-82
2023/07/25 01:17:13;;;;;;;5.70;2.15;;;19.40;99.90;;;;;;5028136;28;20033;-76
2023/07/25 01:19:43;;;;;;;5.90;2.22;;;19.40;99.90;;;;;;5026867;28;20037;-75
2023/07/25 01:22:09;;;;;;;10.07;1.90;;;19.50;99.90;;;;;;5024916;28;20425;-87
2023/07/25 01:24:37;;;;;;;7.60;2.67;;;19.50;99.90;;;;;;5028540;28;20409;-72
2023/07/25 01:27:02;;;;;;;9.40;2.60;;;19.60;99.90;;;;;;5023063;28;20038;-74
2023/07/25 01:29:28;;;;;;;7.40;2.03;;;19.60;99.90;;;;;;5027647;28;20083;-86
2023/07/25 01:31:54;;;;;;;7.10;2.30;;;19.70;99.90;;;;;;5024648;28;20502;-78
2023/07/25 01:34:20;;;;;;;5.13;2.17;;;19.60;99.90;;;;;;5028363;28;20057;-72
2023/07/25 01:36:45;;;;;;;5.13;2.23;;;19.60;99.90;;;;;;5024446;28;20060;-84
2023/07/25 01:39:11;;;;;;;5.33;2.27;;;19.70;99.90;;;;;;5024420;28;20111;-78
2023/07/25 01:41:37;;;;;;;8.77;2.27;;;19.70;99.90;;;;;;5024981;28;20080;-80
2023/07/25 01:44:03;;;;;;;3.47;2.20;;;19.80;99.90;;;;;;5025218;28;20021;-81
2023/07/25 01:46:29;;;;;;;10.63;2.70;;;19.50;99.90;;;;;;5028255;28;20055;-79
2023/07/25 01:48:54;;;;;;;10.67;2.83;;;19.50;99.90;;;;;;5026419;28;20457;-76
2023/07/25 01:51:20;;;;;;;16.00;2.30;;;19.40;99.90;;;;;;5027427;28;20021;-73
2023/07/25 01:53:46;;;;;;;6.15;2.40;;;19.30;99.90;;;;;;5026179;28;20125;-67
2023/07/25 01:56:11;;;;;;;5.57;2.50;;;19.30;99.90;;;;;;5026280;28;20116;-77
2023/07/25 01:58:37;;;;;;;6.83;2.23;;;19.30;99.90;;;;;;5026263;28;20026;-73
2023/07/25 02:01:02;;;;;;;5.63;2.03;;;19.30;99.90;;;;;;5026929;28;20022;-74
2023/07/25 02:03:28;;;;;;;9.63;2.40;;;19.40;99.90;;;;;;5024634;28;20401;-74
2023/07/25 02:05:53;;;;;;;8.83;2.87;;;19.40;99.90;;;;;;5023233;28;20087;-74
2023/07/25 02:08:19;;;;;;;7.53;2.57;;;19.50;99.90;;;;;;5027612;28;20065;-82
2023/07/25 02:10:45;;;;;;;7.37;2.50;;;19.40;99.90;;;;;;5030137;28;20096;-74
2023/07/25 02:13:10;;;;;;;2.03;1.80;;;19.30;99.90;;;;;;5025521;28;20501;-67
2023/07/25 02:15:36;;;;;;;5.57;2.43;;;19.30;99.90;;;;;;5026616;28;20160;-84
2023/07/25 02:18:03;;;;;;;8.48;2.40;;;19.30;99.90;;;;;;5027047;28;20029;-73
2023/07/25 02:20:32;;;;;;;9.52;1.98;;;19.30;99.90;;;;;;5056342;28;20124;-70
2023/07/25 02:22:58;;;;;;;14.45;2.33;;;19.20;99.90;;;;;;5024770;28;20556;-75
2023/07/25 02:25:26;;;;;;;9.73;2.60;;;19.10;99.90;;;;;;5025420;28;20025;-75
2023/07/25 02:27:51;;;;;;;8.65;2.47;;;19.10;99.90;;;;;;5022735;28;20038;-87
2023/07/25 02:30:17;;;;;;;6.40;2.27;;;19.10;99.90;;;;;;5025995;28;20029;-79
2023/07/25 02:32:42;;;;;;;7.93;2.40;;;19.10;99.90;;;;;;5027131;28;20284;-66
2023/07/25 02:35:08;;;;;;;5.57;2.13;;;19.20;99.90;;;;;;5022815;28;20104;-72
2023/07/25 02:37:34;;;;;;;6.30;2.53;;;19.10;99.90;;;;;;5025326;28;20040;-67
2023/07/25 02:39:59;;;;;;;9.40;2.40;;;19.10;99.90;;;;;;5025009;28;20025;-69
2023/07/25 02:42:25;;;;;;;4.60;2.07;;;19.00;99.90;;;;;;5027296;28;20500;-78
2023/07/25 02:44:50;;;;;;;4.17;2.50;;;18.80;99.90;;;;;;5024244;28;20034;-75
2023/07/25 02:47:16;;;;;;;8.93;2.37;;;18.70;99.90;;;;;;5027895;28;20037;-76
2023/07/25 02:49:41;;;;;;;15.93;3.13;;;18.80;99.90;;;;;;5023762;28;20061;-77
2023/07/25 02:52:07;;;;;;;12.50;2.83;;;18.70;99.90;;;;;;5025086;28;20405;-85
2023/07/25 02:54:33;;;;;;;5.63;2.93;;;18.70;99.90;;;;;;5027512;28;20516;-73
2023/07/25 02:56:58;;;;;;;10.40;2.57;;;18.60;99.90;;;;;;5024781;28;20026;-71
2023/07/25 02:59:24;;;;;;;14.23;3.10;;;18.60;99.90;;;;;;5023145;28;20046;-70
2023/07/25 03:01:49;;;;;;;10.10;2.63;;;18.60;99.90;;;;;;5023173;28;20026;-70
2023/07/25 03:04:15;;;;;;;7.57;2.57;;;18.60;99.90;;;;;;5025932;28;20450;-72
2023/07/25 03:06:40;;;;;;;4.87;2.87;;;18.50;99.90;;;;;;5026400;28;20152;-67
2023/07/25 03:09:06;;;;;;;8.03;2.50;;;18.50;99.90;;;;;;5025724;28;20105;-69
2023/07/25 03:11:32;;;;;;;7.72;2.63;;;18.40;99.90;;;;;;5021892;28;20448;-66
2023/07/25 03:13:58;;;;;;;7.60;2.40;;;18.40;99.90;;;;;;5025935;28;20068;-82
2023/07/25 03:16:23;;;;;;;4.37;2.43;;;18.40;99.90;;;;;;5026141;28;20432;-75
2023/07/25 03:18:49;;;;;;;9.77;2.58;;;18.40;99.90;;;;;;5023036;28;20033;-69
2023/07/25 03:21:15;;;;;;;13.03;2.93;;;18.50;99.90;;;;;;5026153;28;20034;-67
2023/07/25 03:23:40;;;;;;;9.87;3.33;;;18.50;99.90;;;;;;5023644;28;20030;-85
2023/07/25 03:26:06;;;;;;;8.27;2.90;;;18.30;99.90;;;;;;5027485;28;20032;-76
2023/07/25 03:28:31;;;;;;;7.97;2.60;;;18.40;99.90;;;;;;5025490;28;20041;-66
2023/07/25 03:30:57;;;;;;;6.90;3.00;;;18.40;99.90;;;;;;5025030;28;20029;-72
2023/07/25 03:33:22;;;;;;;9.37;2.77;;;18.30;99.90;;;;;;5026242;28;20037;-66
2023/07/25 03:35:48;;;;;;;6.13;2.83;;;18.40;99.90;;;;;;5024754;28;20481;-66
2023/07/25 03:38:14;;;;;;;6.17;2.43;;;18.40;99.90;;;;;;5023986;28;20030;-70
2023/07/25 03:40:39;;;;;;;4.43;2.67;;;18.40;99.90;;;;;;5023591;28;20021;-66
2023/07/25 03:43:05;;;;;;;5.60;2.50;;;18.40;99.90;;;;;;5025371;28;20031;-67
2023/07/25 03:45:30;;;;;;;5.10;2.60;;;18.60;99.90;;;;;;5025230;28;20064;-66
2023/07/25 03:47:56;;;;;;;11.40;2.55;;;18.70;99.90;;;;;;5027614;28;20062;-73
2023/07/25 03:50:22;;;;;;;7.33;2.60;;;18.80;99.90;;;;;;5024357;28;20044;-69
2023/07/25 03:52:47;;;;;;;2.87;2.47;;;18.90;99.90;;;;;;5024154;28;20029;-68
2023/07/25 03:55:13;;;;;;;5.97;2.67;;;18.80;99.90;;;;;;5027155;28;20026;-67
2023/07/25 03:57:38;;;;;;;7.70;2.60;;;18.80;99.90;;;;;;5021535;28;20450;-72
2023/07/25 04:00:04;;;;;;;19.83;3.23;;;18.70;99.90;;;;;;5023808;28;20405;-66
2023/07/25 04:02:30;;;;;;;4.20;2.60;;;18.70;99.90;;;;;;5027905;28;20025;-75
2023/07/25 04:04:56;;;;;;;7.07;2.10;;;18.60;99.90;;;;;;5022457;28;20405;-69
2023/07/25 04:07:21;;;;;;;4.50;2.60;;;18.70;99.90;;;;;;5025722;28;20073;-83
2023/07/25 04:09:47;;;;;;;14.43;2.80;;;18.50;99.90;;;;;;5023942;28;20545;-69
2023/07/25 04:12:13;;;;;;;11.93;2.93;;;18.60;99.90;;;;;;5023594;28;20022;-66
2023/07/25 04:14:39;;;;;;;8.15;3.22;;;18.50;99.90;;;;;;5028649;28;20028;-79
2023/07/25 04:17:05;;;;;;;;;;;18.40;99.90;;;;;;5027618;28;20029;-67
2023/07/25 04:19:30;;;;;;;10.27;3.33;;;18.30;99.90;;;;;;5029933;28;19916;-69
2023/07/25 04:21:56;;;;;;;8.53;3.10;;;18.20;99.90;;;;;;5028090;28;20029;-67
2023/07/25 04:24:22;;;;;;;6.00;2.53;;;18.20;99.90;;;;;;5024784;28;20553;-71
2023/07/25 04:26:47;;;;;;;12.43;2.93;;;18.30;99.90;;;;;;5028479;28;20049;-67
2023/07/25 04:29:13;;;;;;;8.17;2.90;;;18.20;99.90;;;;;;5029026;28;20034;-66
2023/07/25 04:31:38;;;;;;;20.03;3.20;;;18.20;99.90;;;;;;5021889;28;20176;-73
2023/07/25 04:34:04;;;;;;;8.50;3.43;;;18.20;99.90;;;;;;5028863;28;20028;-72
2023/07/25 04:36:30;;;;;;;6.80;2.87;;;18.30;99.90;;;;;;5027685;28;20103;-74
2023/07/25 04:38:56;;;;;;;5.00;2.67;;;18.30;99.90;;;;;;5030455;28;20038;-68
2023/07/25 04:41:22;;;;;;;7.38;3.55;;;18.30;99.90;;;;;;5021894;28;20289;-72
2023/07/25 04:43:48;;;;;;;10.63;2.97;;;18.50;99.90;;;;;;5025030;28;20036;-71
2023/07/25 04:46:13;;;;;;;7.63;3.40;;;18.50;99.90;;;;;;5027977;28;20033;-77
2023/07/25 04:48:39;;;;;;;10.93;3.07;;;18.50;99.90;;;;;;5028077;28;20041;-71
2023/07/25 04:51:05;;;;;;;9.37;2.60;;;18.60;99.90;;;;;;5029003;28;20401;-72
2023/07/25 04:53:31;;;;;;;6.65;2.72;;;18.60;99.90;;;;;;5026344;28;20033;-72
2023/07/25 04:55:56;;;;;;;7.20;2.70;;;18.50;99.90;;;;;;5026159;28;20041;-77
2023/07/25 04:58:22;;;;;;;10.83;2.90;;;18.50;99.90;;;;;;5032483;28;20029;-68
2023/07/25 05:00:47;;;;;;;5.80;3.10;;;18.60;99.90;;;;;;5036133;28;20029;-68
2023/07/25 05:03:13;;;;;;;8.10;3.30;;;18.70;99.90;;;;;;5028292;28;20049;-68
2023/07/25 05:05:39;;;;;;;7.83;3.27;;;18.50;99.90;;;;;;5028873;28;20079;-72
2023/07/25 05:08:04;;;;;;;4.43;2.77;;;18.60;99.90;;;;;;5033530;28;20075;-73
2023/07/25 05:10:31;;;;;;;8.27;3.20;;;18.40;99.90;;;;;;5032926;28;20047;-76
2023/07/25 05:12:57;;;;;;;8.45;2.72;;;18.60;99.90;;;;;;5027097;28;20025;-74
2023/07/25 05:15:23;;;;;;;11.77;2.90;;;18.70;99.90;;;;;;5026793;28;20104;-76
2023/07/25 05:17:48;;;;;;;9.52;2.80;;;18.70;99.90;;;;;;5028625;28;20095;-71
2023/07/25 05:20:14;;;;;;;8.23;3.13;;;18.90;99.90;;;;;;5025224;28;20030;-76
2023/07/25 05:22:40;;;;;;;5.30;3.03;;;18.90;99.90;;;;;;5027817;28;20512;-79
2023/07/25 05:25:06;;;;;;;11.53;3.03;;;19.30;99.90;;;;;;5027717;28;20057;-70
2023/07/25 05:27:32;;;;;;;6.90;2.97;;;20.20;99.90;;;;;;5022220;28;20040;-73
2023/07/25 05:29:57;;;;;;;8.73;2.60;;;20.50;99.90;;;;;;5015125;28;20041;-75
2023/07/25 05:32:23;;;;;;;4.57;2.40;;;20.70;99.90;;;;;;5022740;28;20268;-70
2023/07/25 05:34:49;;;;;;;8.43;3.20;;;20.20;99.90;;;;;;5026707;28;20095;-73
2023/07/25 05:37:18;;;;;;;4.90;2.80;;;22.30;99.90;;;;;;5024693;28;20272;-71
2023/07/25 05:39:43;;;;;;;12.00;4.03;;;23.30;99.90;;;;;;5027595;28;20026;-69
2023/07/25 05:42:09;;;;;;;6.03;2.67;;;21.80;99.90;;;;;;5022254;28;20044;-79
2023/07/25 05:44:35;;;;;;;14.70;2.90;;;21.80;99.90;;;;;;5028932;28;20558;-70
2023/07/25 05:47:04;;;;;;;7.93;3.10;;;21.20;99.90;;;;;;5029847;28;20037;-69
2023/07/25 05:49:30;;;;;;;4.82;2.63;;;20.70;99.90;;;;;;5028457;28;20289;-71
2023/07/25 05:51:56;;;;;;;6.13;2.67;;;20.60;99.90;;;;;;5029883;28;20033;-69
2023/07/25 05:54:22;;;;;;;9.97;2.93;;;21.90;99.90;;;;;;5030703;28;20044;-74
2023/07/25 05:56:47;;;;;;;11.73;2.90;;;23.40;99.90;;;;;;5034954;28;20022;-73
2023/07/25 05:59:13;;;;;;;8.63;2.37;;;25.30;95.30;;;;;;5024643;28;20029;-71
2023/07/25 06:01:39;;;;;;;5.47;2.20;;;27.00;92.00;;;;;;5023157;28;20363;-71
2023/07/25 06:04:05;;;;;;;7.95;2.70;;;28.80;88.00;;;;;;5021694;28;20501;-75
2023/07/25 06:06:31;;;;;;;7.78;2.35;;;29.70;83.30;;;;;;5026072;28;20572;-72
2023/07/25 06:08:56;;;;;;;4.23;2.47;;;30.30;78.50;;;;;;5027431;28;20041;-71
2023/07/25 06:11:23;;;;;;;6.70;2.40;;;31.10;77.30;;;;;;5026631;28;20284;-73
2023/07/25 06:13:49;;;;;;;6.22;2.25;;;30.90;76.30;;;;;;5024467;28;20049;-71
2023/07/25 06:16:16;;;;;;;4.40;2.20;;;28.20;74.10;;;;;;5026193;28;20436;-75
2023/07/25 06:18:42;;;;;;;5.45;1.98;;;26.70;81.80;;;;;;5020401;28;20175;-74
2023/07/25 06:21:07;;;;;;;8.25;2.00;;;26.10;80.90;;;;;;5019261;28;20096;-74
2023/07/25 06:23:33;;;;;;;4.10;2.45;;;25.10;81.80;;;;;;5024938;28;20175;-73
2023/07/25 06:25:58;;;;;;;5.28;2.00;;;25.50;85.30;;;;;;5030070;28;20501;-71
2023/07/25 06:28:24;;;;;;;3.92;2.20;;;26.00;82.80;;;;;;5021475;28;20045;-73
2023/07/25 06:30:50;;;;;;;3.37;1.87;;;25.90;85.90;;;;;;5025415;28;20049;-73
2023/07/25 06:33:15;;;;;;;4.32;2.17;;;25.60;83.10;;;;;;5026158;28;20286;-76
2023/07/25 06:35:41;;;;;;;4.03;2.28;;;24.80;84.70;;;;;;5026310;28;20189;-78
2023/07/25 06:38:07;;;;;;;4.57;2.25;;;23.60;87.70;;;;;;5030276;28;20033;-72
2023/07/25 06:40:32;;;;;;;6.35;2.58;;;24.00;89.90;;;;;;5057307;28;20043;-76
2023/07/25 06:42:58;;;;;;;8.93;2.30;;;24.50;85.60;;;;;;5026557;28;20040;-72
2023/07/25 06:45:23;;;;;;;7.17;2.50;;;23.80;90.30;;;;;;5027734;28;20849;-74
2023/07/25 06:47:49;;;;;;;5.00;2.07;;;23.50;90.50;;;;;;5029772;28;20048;-77
2023/07/25 06:50:15;;;;;;;8.40;2.70;;;23.20;90.10;;;;;;5025362;28;20394;-77
2023/07/25 06:52:40;;;;;;;6.85;2.10;;;23.10;88.90;;;;;;5024529;28;20532;-80
2023/07/25 06:55:06;;;;;;;4.90;2.17;;;22.90;87.80;;;;;;5024550;28;20036;-73
2023/07/25 06:57:32;;;;;;;6.55;2.28;;;22.60;89.70;;;;;;5025290;28;20507;-71
2023/07/25 06:59:57;;;;;;;4.20;2.30;;;22.90;90.40;;;;;;5022258;28;20038;-74
2023/07/25 07:02:23;;;;;;;5.53;3.00;;;23.80;83.90;;;;;;5029857;28;20288;-72
2023/07/25 07:04:49;;;;;;;6.05;3.20;;;23.40;85.90;;;;;;5031511;28;20640;-73
2023/07/25 07:07:15;;;;;;;5.97;3.10;;;22.90;87.40;;;;;;5024139;28;20496;-74
2023/07/25 07:09:40;;;;;;;12.57;4.60;;;23.00;86.30;;;;;;5026086;28;20040;-76
2023/07/25 07:12:06;;;;;;;9.20;4.23;;;22.90;87.70;;;;;;5023198;28;20033;-75
2023/07/25 07:14:32;;;;;;;16.83;3.95;;;22.50;86.00;;;;;;5027665;28;20045;-73
2023/07/25 07:16:58;;;;;;;6.57;2.87;;;22.70;89.30;;;;;;5025349;28;20044;-82
2023/07/25 07:19:23;;;;;;;6.00;2.45;;;22.90;86.60;;;;;;5024863;28;20103;-74
2023/07/25 07:21:49;;;;;;;5.90;2.43;;;23.10;87.00;;;;;;5027277;28;20498;-70
2023/07/25 07:24:14;;;;;;;28.70;11.40;;;23.00;86.50;;;;;;5031795;28;20033;-70
2023/07/25 07:26:40;;;;;;;10.95;4.05;;;23.20;88.40;;;;;;5024298;28;20067;-69
2023/07/25 07:29:06;;;;;;;10.37;4.33;;;22.80;87.60;;;;;;5027860;28;20038;-70
2023/07/25 07:31:31;;;;;;;9.50;4.10;;;22.90;87.90;;;;;;5031584;28;20275;-71
2023/07/25 07:34:15;;;;;;;9.25;4.03;;;22.70;89.10;;;;;;5027159;28;20491;-73
2023/07/25 07:36:42;;;;;;;7.82;2.78;;;22.90;89.50;;;;;;5025829;28;20045;-72
2023/07/25 07:39:07;;;;;;;9.75;3.35;;;23.10;88.90;;;;;;5034017;28;20036;-73
2023/07/25 07:41:36;;;;;;;7.87;2.60;;;23.20;88.00;;;;;;5029234;28;20037;-71
2023/07/25 07:44:02;;;;;;;6.55;2.15;;;23.20;85.70;;;;;;5029144;28;20329;-72
2023/07/25 07:46:29;;;;;;;5.82;2.60;;;23.40;85.00;;;;;;5024388;28;20120;-72
2023/07/25 07:48:57;;;;;;;8.38;2.20;;;23.70;84.40;;;;;;5026810;28;20046;-72
2023/07/25 07:51:23;;;;;;;6.72;2.00;;;24.30;84.10;;;;;;5031735;28;20485;-72
2023/07/25 07:53:49;;;;;;;6.72;2.05;;;24.00;82.80;;;;;;5030205;28;20029;-71
2023/07/25 07:56:14;;;;;;;7.72;2.47;;;23.50;84.50;;;;;;5039548;28;20893;-72
2023/07/25 07:58:40;;;;;;;3.90;2.17;;;23.70;85.10;;;;;;5027772;28;20024;-72
2023/07/25 08:01:21;;;;;;;4.20;1.80;;;23.00;83.40;;;;;;5026281;28;20106;-73
2023/07/25 08:03:47;;;;;;;3.95;2.13;;;22.90;85.50;;;;;;5031864;28;20041;-72
2023/07/25 08:06:13;;;;;;;5.57;2.25;;;23.40;86.00;;;;;;5028472;28;20083;-72
2023/07/25 08:08:39;;;;;;;4.93;2.17;;;23.80;82.80;;;;;;5029017;28;20043;-73
2023/07/25 08:11:05;;;;;;;;;;;24.00;83.10;;;;;;5025137;28;20551;-71
2023/07/25 08:13:30;;;;;;;3.78;1.75;;;26.80;77.60;;;;;;5026823;28;19913;-72
2023/07/25 08:15:56;;;;;;;5.23;2.00;;;26.80;75.70;;;;;;5031481;28;20095;-72
2023/07/25 08:18:21;;;;;;;2.47;1.63;;;25.80;76.50;;;;;;5025450;28;20489;-72
2023/07/25 08:20:47;;;;;;;5.18;2.35;;;24.90;75.90;;;;;;5023839;28;20103;-72
2023/07/25 08:23:13;;;;;;;6.27;1.90;;;24.90;78.40;;;;;;5027695;28;20167;-70
2023/07/25 08:25:39;;;;;;;4.78;1.98;;;24.50;80.10;;;;;;5026348;28;20116;-72
2023/07/25 08:28:05;;;;;;;9.30;2.72;;;25.40;79.00;;;;;;5030519;28;20037;-71
2023/07/25 08:30:31;;;;;;;5.40;2.33;;;25.30;76.80;;;;;;5029317;28;20104;-71
2023/07/25 08:32:56;;;;;;;4.00;2.20;;;25.50;78.00;;;;;;5024534;28;20536;-71
2023/07/25 08:35:22;;;;;;;4.78;1.80;;;26.20;77.10;;;;;;5028979;28;20083;-71
2023/07/25 08:37:48;;;;;;;3.37;1.80;;;26.30;75.80;;;;;;5024640;28;20605;-71
2023/07/25 08:40:14;;;;;;;5.72;2.40;;;26.70;76.20;;;;;;5031057;28;20380;-71
2023/07/25 08:42:42;;;;;;;7.65;2.20;;;26.80;76.10;;;;;;5024868;28;20661;-72
2023/07/25 08:45:09;;;;;;;5.90;2.45;;;26.80;76.40;;;;;;5023629;28;20529;-71
2023/07/25 08:47:39;;;;;;;6.28;2.08;;;27.50;74.50;;;;;;5032066;28;20335;-72
2023/07/25 08:50:16;;;;;;;6.55;1.85;;;25.80;77.20;;;;;;5032609;28;20137;-72
2023/07/25 08:52:52;;;;;;;;;;;25.00;80.00;;;;;;5035831;28;20021;-73
2023/07/25 08:55:18;;;;;;;3.58;1.90;;;25.50;79.90;;;;;;5033669;28;19913;-73
2023/07/25 08:57:44;;;;;;;5.63;2.20;;;25.90;78.90;;;;;;5028091;28;20120;-71
2023/07/25 09:00:13;;;;;;;4.75;1.67;;;25.40;80.70;;;;;;5024847;28;20049;-72
2023/07/25 09:02:38;;;;;;;7.30;1.52;;;25.20;81.40;;;;;;5025748;28;20555;-71
2023/07/25 09:05:05;;;;;;;6.10;2.80;;;25.20;80.80;;;;;;5020059;28;20037;-71
2023/07/25 09:07:31;;;;;;;6.97;2.60;;;24.70;81.70;;;;;;5031629;28;20065;-71
2023/07/25 09:09:58;;;;;;;11.77;2.33;;;24.60;83.30;;;;;;5030107;28;20428;-71
2023/07/25 09:12:24;;;;;;;5.53;1.98;;;24.40;82.30;;;;;;5024888;28;20044;-72
2023/07/25 09:14:50;;;;;;;;;;;24.50;81.80;;;;;;5028039;28;20158;-72
2023/07/25 09:17:16;;;;;;;10.52;2.35;;;24.70;82.90;;;;;;5028831;28;19913;-71
2023/07/25 09:19:42;;;;;;;6.43;2.53;;;24.90;82.20;;;;;;5029194;28;20037;-71
2023/07/25 09:22:30;;;;;;;4.78;1.83;;;25.10;81.50;;;;;;5028901;28;20288;-71
2023/07/25 09:24:56;;;;;;;7.47;1.73;;;24.90;79.60;;;;;;5033994;28;20029;-72
2023/07/25 09:27:22;;;;;;;5.68;2.30;;;24.90;81.60;;;;;;5034316;28;20041;-72
2023/07/25 09:29:52;;;;;;;3.67;1.37;;;24.80;81.40;;;;;;5029162;28;20041;-72
2023/07/25 09:32:23;;;;;;;4.90;1.90;;;24.40;81.30;;;;;;5027280;28;20283;-72
2023/07/25 09:35:00;;;;;;;3.30;1.58;;;24.30;82.00;;;;;;5024729;28;20485;-72
2023/07/25 09:37:28;;;;;;;2.50;1.35;;;24.20;81.30;;;;;;5032124;28;20045;-73
2023/07/25 09:39:53;;;;;;;3.53;1.65;;;24.10;85.00;;;;;;5032845;28;20029;-74
2023/07/25 09:42:23;;;;;;;2.57;1.50;;;24.10;84.70;;;;;;5016925;28;20025;-74
2023/07/25 09:44:53;;;;;;;4.53;1.30;;;24.10;85.70;;;;;;5027897;28;20390;-74
2023/07/25 09:47:23;;;;;;;5.90;1.65;;;24.50;83.20;;;;;;5022331;28;20029;-72
2023/07/25 09:49:50;;;;;;;4.70;1.98;;;25.10;81.50;;;;;;5025237;28;20041;-73
2023/07/25 09:52:16;;;;;;;26.30;5.55;;;25.20;82.00;;;;;;5025780;28;20025;-73
2023/07/25 09:54:42;;;;;;;18.75;4.97;;;25.50;77.90;;;;;;5025858;28;20123;-75
2023/07/25 09:57:08;;;;;;;24.80;4.95;;;25.20;80.80;;;;;;5022395;28;20063;-75
2023/07/25 09:59:35;;;;;;;10.80;3.15;;;25.20;80.80;;;;;;5024823;28;20041;-76
2023/07/25 10:02:01;;;;;;;5.43;1.40;;;25.10;80.50;;;;;;5025007;28;20037;-75
2023/07/25 10:04:27;;;;;;;8.18;3.25;;;24.50;79.90;;;;;;5027518;28;20506;-77
2023/07/25 10:06:53;;;;;;;;;;;24.60;81.10;;;;;;5026690;28;20029;-75
2023/07/25 10:09:19;;;;;;;3.97;1.70;;;24.10;81.70;;;;;;5030939;28;19919;-73
2023/07/25 10:11:46;;;;;;;3.72;1.73;;;24.00;81.70;;;;;;5026211;28;20029;-73
2023/07/25 10:14:13;;;;;;;5.35;1.13;;;23.80;84.10;;;;;;5029489;28;20037;-72
2023/07/25 10:16:40;;;;;;;1.90;1.10;;;23.50;87.50;;;;;;5025187;28;20037;-73
2023/07/25 10:19:06;;;;;;;2.72;1.05;;;23.50;86.80;;;;;;5025185;28;20038;-73
2023/07/25 10:21:52;;;;;;;3.05;1.40;;;23.30;87.30;;;;;;5027813;28;20036;-72
2023/07/25 10:24:20;;;;;;;3.72;1.55;;;23.70;85.50;;;;;;5023986;28;20029;-74
2023/07/25 10:26:59;;;;;;;3.60;1.63;;;24.10;85.90;;;;;;5028909;28;20033;-72
2023/07/25 10:29:43;;;;;;;6.57;1.63;;;24.50;83.10;;;;;;5025338;28;20033;-71
2023/07/25 10:32:15;;;;;;;2.22;1.23;;;24.50;85.20;;;;;;5028817;28;20036;-71
2023/07/25 10:34:46;;;;;;;2.97;1.38;;;24.30;84.00;;;;;;5025807;28;20505;-72
2023/07/25 10:37:27;;;;;;;6.68;1.77;;;24.30;84.00;;;;;;5020033;28;20045;-73
2023/07/25 10:40:23;;;;;;;4.47;1.80;;;25.70;79.70;;;;;;5025855;28;20076;-72
2023/07/25 10:42:57;;;;;;;4.00;1.30;;;25.60;80.50;;;;;;5015536;28;20509;-72
2023/07/25 10:45:29;;;;;;;4.18;1.70;;;24.70;82.40;;;;;;5023445;28;20083;-72
2023/07/25 10:48:00;;;;;;;4.93;1.95;;;24.30;84.30;;;;;;5026729;28;20040;-70
2023/07/25 10:50:45;;;;;;;6.60;1.80;;;24.00;84.90;;;;;;5025198;28;20038;-72
2023/07/25 10:53:15;;;;;;;4.00;1.60;;;24.00;85.50;;;;;;5024084;28;20040;-71
2023/07/25 10:56:03;;;;;;;5.03;1.88;;;24.10;85.00;;;;;;5029641;28;20048;-71
2023/07/25 10:58:30;;;;;;;2.67;1.52;;;24.10;86.10;;;;;;5023274;28;20100;-72
2023/07/25 11:00:56;;;;;;;5.75;1.45;;;23.80;88.10;;;;;;5026684;28;20034;-71
2023/07/25 11:03:32;;;;;;;2.85;1.48;;;23.60;89.60;;;;;;5024352;28;20022;-71
2023/07/25 11:06:06;;;;;;;5.10;1.90;;;24.30;89.40;;;;;;5027033;28;20114;-71
2023/07/25 11:08:36;;;;;;;3.38;1.50;;;23.90;89.30;;;;;;5024727;28;20045;-72
2023/07/25 11:11:10;;;;;;;3.42;1.25;;;23.10;90.40;;;;;;5027418;28;20034;-71
2023/07/25 11:13:38;;;;;;;3.75;1.20;;;22.70;90.50;;;;;;5023335;28;20653;-71
2023/07/25 11:16:09;;;;;;;3.47;1.30;;;22.60;91.10;;;;;;5021907;28;20030;-71
2023/07/25 11:18:40;;;;;;;2.50;1.10;;;22.30;91.40;;;;;;5031250;28;20065;-71
2023/07/25 11:21:07;;;;;;;3.85;1.60;;;22.40;91.70;;;;;;5033419;28;20018;-71
2023/07/25 11:23:33;;;;;;;5.15;1.15;;;22.50;92.50;;;;;;5032506;28;20059;-72
2023/07/25 11:26:02;;;;;;;4.35;1.40;;;22.60;91.60;;;;;;5032031;28;20037;-71
2023/07/25 11:28:28;;;;;;;1.83;1.20;;;22.70;91.90;;;;;;5027520;28;20037;-70
2023/07/25 11:30:55;;;;;;;4.20;1.05;;;23.30;91.70;;;;;;5030190;28;20050;-71
2023/07/25 11:33:22;;;;;;;1.63;1.00;;;24.00;91.10;;;;;;5030012;28;20364;-71
2023/07/25 11:35:57;;;;;;;5.68;1.10;;;24.40;90.30;;;;;;5028206;28;20029;-71
2023/07/25 11:38:23;;;;;;;3.22;1.45;;;24.20;89.80;;;;;;5030972;28;20033;-71
2023/07/25 11:40:51;;;;;;;2.35;0.95;;;24.30;90.90;;;;;;5027556;28;20037;-71
2023/07/25 11:43:17;;;;;;;2.40;1.08;;;24.40;90.00;;;;;;5031013;28;20033;-71
2023/07/25 11:45:46;;;;;;;;;;;24.70;90.60;;;;;;5020958;28;20130;-71
2023/07/25 11:48:14;;;;;;;2.03;1.10;;;24.70;88.80;;;;;;5031948;28;19920;-71
2023/07/25 11:50:42;;;;;;;3.70;1.23;;;25.00;89.20;;;;;;5030610;28;20029;-71
2023/07/25 11:53:09;;;;;;;2.45;1.17;;;24.90;87.10;;;;;;5034502;28;20033;-71
2023/07/25 11:55:34;;;;;;;;;;;24.70;84.10;;;;;;5026152;28;20036;-71
2023/07/25 11:58:03;;;;;;;6.55;1.27;;;24.30;86.00;;;;;;5028700;28;19913;-70
2023/07/25 12:00:41;;;;;;;5.25;1.45;;;24.20;83.60;;;;;;5028421;28;20041;-71
2023/07/25 12:03:21;;;;;;;3.55;1.63;;;24.40;81.90;;;;;;5029011;28;20030;-70
2023/07/25 12:05:55;;;;;;;3.72;1.40;;;24.90;84.30;;;;;;5023176;28;20049;-71
2023/07/25 12:08:32;;;;;;;4.88;1.65;;;24.90;79.10;;;;;;5027758;28;20418;-71
2023/07/25 12:11:07;;;;;;;6.07;1.98;;;24.70;79.10;;;;;;5029564;28;20021;-69
2023/07/25 12:13:51;;;;;;;3.53;1.42;;;24.80;80.40;;;;;;5029940;28;20033;-72
2023/07/25 12:16:35;;;;;;;4.72;1.35;;;25.30;79.10;;;;;;5026951;28;20021;-71
2023/07/25 12:19:03;;;;;;;2.08;1.25;;;25.50;79.10;;;;;;5030564;28;20028;-71
2023/07/25 12:21:31;;;;;;;2.58;1.75;;;25.70;78.40;;;;;;5023315;28;20031;-69
2023/07/25 12:23:59;;;;;;;4.90;1.40;;;26.20;76.20;;;;;;5022033;28;20033;-70
2023/07/25 12:26:24;;;;;;;5.35;1.67;;;26.30;75.60;;;;;;5027527;28;20024;-70
2023/07/25 12:28:51;;;;;;;3.78;1.80;;;26.10;75.00;;;;;;5029568;28;20034;-70
2023/07/25 12:48:07;;;;;;;4.82;1.50;;;26.10;70.40;;;;;;5029119;28;20535;-70
2023/07/25 12:50:32;;;;;;;3.08;1.58;;;26.60;71.00;;;;;;5025404;28;20038;-69
2023/07/25 12:52:58;;;;;;;10.63;1.47;;;26.50;68.80;;;;;;5029345;28;20108;-70
2023/07/25 12:55:23;;;;;;;6.73;1.67;;;26.40;71.40;;;;;;5029685;28;20277;-70
2023/07/25 12:57:49;;;;;;;8.10;1.83;;;26.00;68.50;;;;;;5030991;28;20112;-72
2023/07/25 13:00:15;;;;;;;7.97;1.50;;;26.20;69.90;;;;;;5029215;28;20688;-72
2023/07/25 13:02:41;;;;;;;4.75;1.33;;;26.20;69.60;;;;;;5030060;28;20489;-71
2023/07/25 13:05:07;;;;;;;3.10;1.17;;;26.10;68.90;;;;;;5033692;28;20037;-69